createdAt,value
2019-04-27T00:05:07.726Z,994.38
2019-04-27T00:15:07.807Z,994.29
2019-04-27T00:25:07.780Z,994.24
2019-04-27T00:35:07.739Z,994.08
2019-04-27T00:45:07.735Z,993.98
2019-04-27T00:55:07.794Z,993.93
2019-04-27T01:05:07.892Z,993.94
2019-04-27T01:15:07.664Z,993.80
2019-04-27T01:25:08.799Z,993.80
2019-04-27T01:35:08.618Z,993.68
2019-04-27T01:45:08.529Z,993.55
2019-04-27T01:55:08.599Z,993.47
2019-04-27T02:05:08.939Z,993.40
2019-04-27T02:15:08.849Z,993.34
2019-04-27T02:25:09.075Z,993.27
2019-04-27T02:35:09.171Z,993.06
2019-04-27T02:45:09.628Z,992.97
2019-04-27T02:55:09.534Z,992.79
2019-04-27T03:05:10.651Z,992.60
2019-04-27T03:15:10.203Z,992.55
2019-04-27T03:25:09.848Z,992.50
2019-04-27T03:35:12.335Z,992.44
2019-04-27T03:45:10.440Z,992.43
2019-04-27T03:55:10.138Z,992.36
2019-04-27T04:05:09.873Z,992.30
2019-04-27T04:15:09.962Z,992.22
2019-04-27T04:25:10.470Z,992.31
2019-04-27T04:35:10.261Z,992.28
2019-04-27T04:45:10.364Z,992.11
2019-04-27T04:55:09.702Z,992.05
2019-04-27T05:05:09.377Z,991.92
2019-04-27T05:15:09.147Z,992.01
2019-04-27T05:25:09.312Z,991.98
2019-04-27T05:35:08.839Z,992.00
2019-04-27T05:45:09.274Z,991.98
2019-04-27T05:55:08.728Z,991.97
2019-04-27T06:05:08.814Z,991.82
2019-04-27T06:15:09.512Z,991.80
2019-04-27T06:25:11.357Z,991.64
2019-04-27T06:35:09.158Z,991.62
2019-04-27T06:45:09.682Z,991.55
2019-04-27T06:55:09.227Z,991.55
2019-04-27T07:05:08.952Z,991.56
2019-04-27T07:15:08.863Z,991.59
2019-04-27T07:25:09.064Z,991.56
2019-04-27T07:35:09.667Z,991.46
2019-04-27T07:45:09.341Z,991.51
2019-04-27T07:55:08.685Z,991.32
2019-04-27T08:05:09.326Z,991.42
2019-04-27T08:15:08.940Z,991.41
2019-04-27T08:25:09.381Z,992.31
2019-04-27T08:35:09.439Z,992.29
2019-04-27T08:45:09.433Z,992.19
2019-04-27T08:55:09.402Z,992.09
2019-04-27T09:05:09.409Z,992.15
2019-04-27T09:15:07.911Z,992.18
2019-04-27T09:25:09.313Z,992.16
2019-04-27T09:35:07.809Z,992.11
2019-04-27T09:45:07.737Z,992.18
2019-04-27T09:55:08.541Z,992.03
2019-04-27T10:05:07.659Z,992.14
2019-04-27T10:15:07.787Z,992.11
2019-04-27T10:25:07.666Z,992.12
2019-04-27T10:35:07.865Z,992.30
2019-04-27T10:45:07.683Z,992.46
2019-04-27T10:55:07.751Z,992.70
2019-04-27T11:05:07.746Z,992.62
2019-04-27T11:15:08.430Z,992.24
2019-04-27T11:25:07.683Z,992.12
2019-04-27T11:35:07.744Z,992.25
2019-04-27T11:45:07.711Z,992.30
2019-04-27T11:55:07.657Z,992.17
2019-04-27T12:05:08.012Z,992.14
2019-04-27T12:15:07.700Z,991.98
2019-04-27T12:25:07.666Z,991.80
2019-04-27T12:35:07.701Z,991.56
2019-04-27T12:45:07.697Z,991.53
2019-04-27T12:55:07.701Z,991.90
2019-04-27T13:05:07.728Z,991.95
2019-04-27T13:15:07.734Z,991.90
2019-04-27T13:25:07.708Z,991.87
2019-04-27T13:35:07.742Z,991.75
2019-04-27T13:45:07.694Z,991.77
2019-04-27T13:55:07.666Z,991.66
2019-04-27T14:05:07.745Z,992.03
2019-04-27T14:15:08.670Z,992.04
2019-04-27T14:25:08.627Z,991.83
2019-04-27T14:35:08.433Z,991.78
2019-04-27T14:45:08.987Z,991.82
2019-04-27T14:55:08.638Z,991.89
2019-04-27T15:05:07.648Z,991.93
2019-04-27T15:15:07.758Z,992.05
2019-04-27T15:25:12.493Z,992.15
2019-04-27T15:35:09.630Z,992.31
2019-04-27T15:45:08.947Z,992.30
2019-04-27T15:55:30.814Z,992.58
2019-04-27T16:05:08.244Z,992.54
2019-04-27T16:15:08.090Z,992.68
2019-04-27T16:25:08.334Z,992.94
2019-04-27T16:35:07.859Z,993.08
2019-04-27T16:45:08.592Z,993.07
2019-04-27T16:55:08.679Z,993.02
2019-04-27T17:05:08.398Z,993.21
2019-04-27T17:15:10.626Z,993.29
2019-04-27T17:25:08.969Z,993.35
2019-04-27T17:35:12.972Z,993.63
2019-04-27T17:45:09.029Z,993.65
2019-04-27T17:55:07.967Z,993.79
2019-04-27T18:05:09.624Z,993.79
2019-04-27T18:15:10.525Z,993.91
2019-04-27T18:25:09.546Z,994.30
2019-04-27T18:35:08.128Z,994.26
2019-04-27T18:45:08.398Z,994.43
2019-04-27T18:55:10.967Z,994.50
2019-04-27T19:05:08.867Z,994.59
2019-04-27T19:15:08.168Z,994.67
2019-04-27T19:25:09.445Z,994.85
2019-04-27T19:35:07.653Z,994.91
2019-04-27T19:45:07.627Z,994.96
2019-04-27T19:55:08.506Z,994.98
2019-04-27T20:05:07.645Z,995.10
2019-04-27T20:15:07.611Z,995.17
2019-04-27T20:25:07.697Z,995.20
2019-04-27T20:35:07.869Z,995.27
2019-04-27T20:45:07.821Z,995.33
2019-04-27T20:55:07.704Z,995.36
2019-04-27T21:05:07.648Z,995.33
2019-04-27T21:15:07.646Z,995.30
2019-04-27T21:25:07.687Z,995.35
2019-04-27T21:35:07.676Z,995.47
2019-04-27T21:45:07.602Z,995.50
2019-04-27T21:55:07.695Z,995.69
2019-04-27T22:05:07.653Z,995.61
2019-04-27T22:15:07.611Z,995.65
2019-04-27T22:25:07.897Z,995.64
2019-04-27T22:35:07.634Z,995.76
2019-04-27T22:45:07.674Z,995.86
2019-04-27T22:55:07.661Z,995.79
2019-04-27T23:05:07.727Z,995.90
2019-04-27T23:15:07.696Z,995.92
2019-04-27T23:25:07.669Z,995.89
2019-04-27T23:35:07.599Z,995.85
2019-04-27T23:45:07.604Z,995.84
2019-04-27T23:55:07.660Z,995.85
